Latest Weather Observations for Penrith

IDN60901

Issued at 6:41 pm EST Monday 26 June 2017 (issued every 10 minutes, with the page automatically refreshed every 10 minutes)

About weather observations | Map of Sydney area stations | Latest observations for Sydney area | Other Formats
Station Details ID: 067113 Name: PENRITH LAKES AWS Lat: -33.72 Lon: 150.68 Height: 24.7 m
Data from the previous 72 hours. | See also: Recent months at Penrith
Date/Time
EST
Temp
°C
App
Temp
°C
Dew
Point
°C
Rel
Hum
%
Delta-T
°C
Wind Press
QNH
hPa
Press
MSL
hPa
Rain since
9am
mm
Dir  Spd
km/h
Gust
km/h
Spd
kts
Gust
kts
26/06:30pm 10.6 9.0 8.0 84 1.3 SE 6 11 3 6 - - 0.0
26/06:00pm 11.9 10.7 8.0 77 1.9 NNW 4 6 2 3 - - 0.0
26/05:30pm 12.7 11.1 6.5 66 3.0 WSW 4 6 2 3 - - 0.0
26/05:00pm 13.3 11.8 6.9 65 3.1 WSW 4 6 2 3 - - 0.0
26/04:30pm 15.7 13.2 4.7 48 5.2 SSE 7 11 4 6 - - 0.0
26/04:00pm 16.5 13.6 4.5 45 5.6 SE 9 13 5 7 - - 0.0
26/03:30pm 17.7 15.3 4.3 41 6.3 ESE 6 9 3 5 - - 0.0
26/03:00pm 18.4 16.0 4.2 39 6.7 ENE 6 9 3 5 - - 0.0
26/02:30pm 18.4 16.5 4.9 41 6.5 N 4 13 2 7 - - 0.0
26/02:00pm 18.6 16.9 4.0 38 6.9 WNW 2 6 1 3 - - 0.0
26/01:30pm 17.7 15.7 4.6 42 6.2 SE 4 9 2 5 - - 0.0
26/01:00pm 17.7 16.3 5.3 44 6.0 SW 2 6 1 3 - - 0.0
26/12:30pm 16.6 15.1 6.7 52 4.9 SE 4 6 2 3 - - 0.0
26/12:00pm 15.9 14.8 6.9 55 4.4 SE 2 6 1 3 - - 0.0
26/11:30am 14.7 13.2 6.8 59 3.8 SE 4 7 2 4 - - 0.0
26/11:00am 14.8 13.5 7.6 62 3.6 WNW 4 6 2 3 - - 0.0
26/10:30am 13.7 13.3 8.1 69 2.8 CALM 0 0 0 0 - - 0.0
26/10:00am 12.2 11.4 8.1 76 2.0 N 2 4 1 2 - - 0.0
26/09:30am 11.0 10.3 6.9 76 1.9 CALM 0 0 0 0 - - 0.0
26/09:00am 9.6 9.0 7.4 86 1.0 CALM 0 0 0 0 - - 0.0
26/08:30am 7.7 6.7 7.4 98 0.1 ENE 2 4 1 2 - - 0.0
26/08:00am 6.3 5.4 6.0 98 0.1 CALM 0 0 0 0 - - 0.0
26/07:30am 4.9 3.7 4.6 98 0.1 CALM 0 4 0 2 - - 0.0
26/07:00am 4.2 1.7 3.9 98 0.1 SW 6 7 3 4 - - 0.0
26/06:30am 4.6 1.3 4.3 98 0.1 ENE 11 13 6 7 - - 0.0
26/06:00am 4.1 0.7 3.8 98 0.1 NNE 11 17 6 9 - - 0.0
26/05:30am 4.4 2.3 4.1 98 0.1 N 4 6 2 3 - - 0.0
26/05:00am 4.8 3.2 4.5 98 0.1 SE 2 4 1 2 - - 0.0
26/04:30am 4.8 2.8 4.5 98 0.1 W 4 6 2 3 - - 0.0
26/04:00am 5.0 3.1 4.7 98 0.1 SE 4 6 2 3 - - 0.0
26/03:30am 5.3 4.2 5.0 98 0.1 CALM 0 0 0 0 - - 0.0
26/03:00am 5.2 3.7 4.9 98 0.1 SSE 2 4 1 2 - - 0.0
26/02:30am 5.1 3.2 4.7 97 0.2 SSW 4 4 2 2 - - 0.0
26/02:00am 5.5 3.3 5.1 97 0.2 S 6 7 3 4 - - 0.0
26/01:30am 6.2 4.8 5.5 95 0.3 W 2 4 1 2 - - 0.0
26/01:00am 6.3 4.8 5.1 92 0.5 SSE 2 6 1 3 - - 0.0
26/12:30am 6.6 4.8 5.2 91 0.6 SSE 4 6 2 3 - - 0.0
26/12:00am 7.1 5.3 5.3 88 0.8 S 4 6 2 3 - - 0.0
 
Date/Time
EST
Temp
°C
App
Temp
°C
Dew
Point
°C
Rel
Hum
%
Delta-T
°C
Wind Press
QNH
hPa
Press
MSL
hPa
Rain since
9am
mm
Dir  Spd
km/h
Gust
km/h
Spd
kts
Gust
kts
25/11:30pm 7.6 6.3 6.1 90 0.7 SSE 2 6 1 3 - - 0.0
25/11:00pm 8.2 7.4 6.5 89 0.8 CALM 0 7 0 4 - - 0.0
25/10:30pm 9.7 7.8 6.6 81 1.4 NNW 6 7 3 4 - - 0.0
25/10:00pm 9.1 7.0 5.8 80 1.5 N 6 7 3 4 - - 0.0
25/09:30pm 9.7 7.5 5.3 74 2.0 N 6 7 3 4 - - 0.0
25/09:00pm 10.8 9.2 6.2 73 2.1 NNW 4 7 2 4 - - 0.0
25/08:30pm 9.8 8.2 6.3 79 1.6 N 4 6 2 3 - - 0.0
25/08:00pm 8.8 7.0 5.4 79 1.5 N 4 7 2 4 - - 0.0
25/07:30pm 10.7 9.5 6.5 75 2.0 WNW 2 4 1 2 - - 0.0
25/07:00pm 11.1 10.4 6.8 75 2.0 CALM 0 0 0 0 - - 0.0
25/06:30pm 11.5 10.1 7.2 75 2.1 WNW 4 6 2 3 - - 0.0
25/06:00pm 11.9 9.9 6.4 69 2.6 WSW 6 7 3 4 - - 0.0
25/05:30pm 12.4 10.5 6.5 67 2.8 W 6 9 3 5 - - 0.0
25/05:00pm 14.5 13.1 7.3 62 3.5 WSW 4 4 2 2 - - 0.0
25/04:30pm 17.2 14.9 5.8 47 5.5 W 7 13 4 7 - - 0.0
25/04:00pm 18.6 16.5 5.8 43 6.3 WSW 6 11 3 6 - - 0.0
25/03:30pm 17.8 14.3 5.4 44 6.0 SW 13 19 7 10 - - 0.0
25/03:00pm 17.8 14.7 5.7 45 5.9 S 11 20 6 11 - - 0.0
25/02:30pm 19.4 16.4 5.8 41 6.7 SW 11 24 6 13 - - 0.0
25/02:00pm 19.7 18.0 6.1 41 6.8 N 4 6 2 3 - - 0.0
25/01:30pm 18.2 16.5 6.1 45 6.0 SE 4 6 2 3 - - 0.0
25/01:00pm 17.9 15.9 6.1 46 5.8 NE 6 9 3 5 - - 0.0
25/12:30pm 16.9 15.6 6.1 49 5.3 SSE 2 6 1 3 - - 0.0
25/12:00pm 16.0 14.4 6.2 52 4.8 SSE 4 7 2 4 - - 0.0
25/11:30am 14.6 13.3 7.6 63 3.5 SSW 4 6 2 3 - - 0.0
25/11:00am 13.4 12.8 7.2 66 3.0 CALM 0 2 0 1 - - 0.0
25/10:30am 11.9 11.2 7.0 72 2.3 CALM 0 4 0 2 - - 0.0
25/10:00am 10.8 9.6 6.6 75 2.0 NW 2 4 1 2 - - 0.0
25/09:30am 9.2 8.5 6.8 85 1.1 CALM 0 2 0 1 - - 0.0
25/09:00am 7.8 6.7 7.1 95 0.3 SE 2 4 1 2 - - 0.0
25/08:30am 6.1 4.8 5.8 98 0.1 SSE 2 6 1 3 - - 0.0
25/08:00am 4.7 2.7 4.4 98 0.1 WSW 4 6 2 3 - - 0.0
25/07:30am 3.4 0.8 3.1 98 0.1 SSE 6 9 3 5 - - 0.0
25/07:00am 3.3 0.7 3.0 98 0.1 SSE 6 7 3 4 - - 0.0
25/06:30am 3.7 2.3 3.4 98 0.1 CALM 0 2 0 1 - - 0.0
25/06:00am 4.0 1.9 3.7 98 0.1 S 4 6 2 3 - - 0.0
25/05:30am 4.3 2.2 4.0 98 0.1 SSW 4 4 2 2 - - 0.0
25/05:00am 4.5 2.5 4.2 98 0.1 SSE 4 6 2 3 - - 0.0
25/04:30am 4.6 2.6 4.3 98 0.1 ENE 4 6 2 3 - - 0.0
25/04:00am 4.7 3.5 4.4 98 0.1 CALM 0 0 0 0 - - 0.0
25/03:30am 4.8 3.6 4.5 98 0.1 CALM 0 4 0 2 - - 0.0
25/03:00am 5.1 3.2 4.8 98 0.1 W 4 4 2 2 - - 0.0
25/02:30am 5.1 3.5 4.7 97 0.2 W 2 4 1 2 - - 0.0
25/02:00am 5.5 3.6 5.1 97 0.2 W 4 6 2 3 - - 0.0
25/01:30am 5.5 3.2 4.9 96 0.3 W 6 6 3 3 - - 0.0
25/01:00am 5.9 3.6 5.0 94 0.4 W 6 6 3 3 - - 0.0
25/12:30am 6.2 4.8 5.3 94 0.4 W 2 4 1 2 - - 0.0
25/12:00am 6.5 4.8 5.9 96 0.3 W 4 7 2 4 - - 0.0
 
Date/Time
EST
Temp
°C
App
Temp
°C
Dew
Point
°C
Rel
Hum
%
Delta-T
°C
Wind Press
QNH
hPa
Press
MSL
hPa
Rain since
9am
mm
Dir  Spd
km/h
Gust
km/h
Spd
kts
Gust
kts
24/11:30pm 6.5 5.5 5.6 94 0.4 CALM 0 0 0 0 - - 0.0
24/11:00pm 7.2 6.0 6.3 94 0.4 SSW 2 6 1 3 - - 0.0
24/10:30pm 7.7 6.1 6.3 91 0.6 ESE 4 6 2 3 - - 0.0
24/10:00pm 8.0 7.1 6.0 87 0.9 CALM 0 0 0 0 - - 0.0
24/09:30pm 8.4 7.5 6.2 86 1.0 CALM 0 0 0 0 - - 0.0
24/09:00pm 9.2 7.6 6.5 83 1.3 S 4 4 2 2 - - 0.0
24/08:30pm 9.3 7.2 6.0 80 1.5 SE 6 7 3 4 - - 0.0
24/08:00pm 9.5 7.5 6.2 80 1.5 SE 6 7 3 4 - - 0.0
24/07:30pm 9.6 7.8 7.2 85 1.1 SE 6 7 3 4 - - 0.0
24/07:00pm 10.6 9.3 7.7 82 1.4 SSE 4 6 2 3 - - 0.0
24/06:30pm 11.5 10.1 5.4 66 2.8 W 2 4 1 2 - - 0.0
24/06:00pm 12.6 11.0 6.4 66 2.9 W 4 6 2 3 - - 0.0
24/05:30pm 13.4 11.7 5.8 60 3.6 W 4 6 2 3 - - 0.0
24/05:00pm 15.1 12.6 4.5 49 4.9 W 7 11 4 6 - - 0.0
24/04:30pm 16.6 14.1 4.9 46 5.6 WNW 7 9 4 5 - - 0.0
24/04:00pm 18.5 15.6 4.7 40 6.6 W 9 15 5 8 - - 0.0
24/03:30pm 19.2 16.0 4.9 39 6.9 W 11 15 6 8 - - 0.0
24/03:00pm 20.0 17.5 4.9 37 7.4 WSW 7 11 4 6 - - 0.0
24/02:30pm 19.8 16.2 5.1 38 7.2 WNW 13 24 7 13 - - 0.0
24/02:00pm 19.8 17.7 6.5 42 6.7 SSW 7 13 4 7 - - 0.0
24/01:30pm 19.1 17.0 6.6 44 6.3 SSE 7 9 4 5 - - 0.0
24/01:00pm 18.9 17.2 6.1 43 6.3 SSW 4 7 2 4 - - 0.0
24/12:30pm 18.8 16.8 6.3 44 6.2 W 6 9 3 5 - - 0.0
24/12:00pm 18.1 16.5 7.8 51 5.2 NW 6 9 3 5 - - 0.0
24/11:30am 15.8 14.8 8.8 63 3.6 SSW 4 6 2 3 - - 0.0
24/11:00am 15.3 14.9 9.9 70 2.8 W 2 6 1 3 - - 0.0
24/10:30am 14.0 13.5 9.4 74 2.4 NNE 2 4 1 2 - - 0.0
24/10:00am 12.1 11.7 8.4 78 1.8 CALM 0 2 0 1 - - 0.0
24/09:30am 9.8 8.2 8.2 90 0.8 SE 6 9 3 5 - - 0.0
24/09:00am 8.4 7.6 8.1 98 0.1 WNW 2 4 1 2 - - 0.0
24/08:30am 7.4 6.0 7.1 98 0.1 NNE 4 6 2 3 - - 0.0
24/08:00am 5.5 4.4 5.2 98 0.1 CALM 0 0 0 0 - - 0.0
24/07:30am 4.6 3.0 4.3 98 0.1 WSW 2 4 1 2 - - 0.0
24/07:00am 4.3 1.8 4.0 98 0.1 SW 6 9 3 5 - - 0.0
24/06:30am 4.3 2.2 4.0 98 0.1 W 4 9 2 5 - - 0.0
24/06:00am 4.8 3.6 4.5 98 0.1 CALM 0 0 0 0 - - 0.0
24/05:30am 4.3 2.2 4.0 98 0.1 N 4 9 2 5 - - 0.0
24/05:00am 4.3 2.6 4.0 98 0.1 N 2 4 1 2 - - 0.0
24/04:30am 4.5 2.8 4.2 98 0.1 SW 2 7 1 4 - - 0.0
24/04:00am 4.9 2.9 4.6 98 0.1 SSW 4 7 2 4 - - 0.0
24/03:30am 5.1 3.6 4.8 98 0.1 S 2 7 1 4 - - 0.0
24/03:00am 5.2 3.3 4.9 98 0.1 SSE 4 6 2 3 - - 0.0
24/02:30am 5.2 2.9 4.9 98 0.1 S 6 6 3 3 - - 0.0
24/02:00am 6.2 5.3 5.9 98 0.1 CALM 0 4 0 2 - - 0.0
24/01:30am 6.3 5.0 6.0 98 0.1 S 2 4 1 2 - - 0.0
24/01:00am 5.7 4.3 5.3 97 0.2 ENE 2 6 1 3 - - 0.0
24/12:30am 6.6 4.9 5.7 94 0.4 SSW 4 9 2 5 - - 0.0
24/12:00am 7.0 5.2 5.6 91 0.6 SW 4 6 2 3 - - 0.0
 
Date/Time
EST
Temp
°C
App
Temp
°C
Dew
Point
°C
Rel
Hum
%
Delta-T
°C
Wind Press
QNH
hPa
Press
MSL
hPa
Rain since
9am
mm
Dir  Spd
km/h
Gust
km/h
Spd
kts
Gust
kts
23/11:30pm 7.2 5.8 5.7 90 0.7 SW 2 4 1 2 - - 0.0
23/11:00pm 7.5 5.9 6.3 92 0.5 SE 4 6 2 3 - - 0.0
23/10:30pm 7.5 5.9 6.3 92 0.5 SSE 4 7 2 4 - - 0.0
23/10:00pm 8.1 6.9 6.6 90 0.7 WNW 2 6 1 3 - - 0.0
23/09:30pm 8.8 6.9 6.6 86 1.0 NW 6 6 3 3 - - 0.0
23/09:00pm 9.1 8.2 7.9 92 0.6 WNW 2 6 1 3 - - 0.0
23/08:30pm 9.2 8.4 8.0 92 0.6 S 2 6 1 3 - - 0.0
23/08:00pm 10.1 9.4 8.4 89 0.8 W 2 2 1 1 - - 0.0
23/07:30pm 10.5 9.3 6.6 77 1.8 NW 2 4 1 2 - - 0.0
23/07:00pm 10.9 10.5 8.1 83 1.4 CALM 0 0 0 0 - - 0.0

Latest Capital City Observations: Canberra | Sydney | Melbourne | Brisbane | Adelaide | Perth | Hobart | Darwin

Other Formats:

Comma delimited format used in spreadsheet applications
http://www.bom.gov.au/fwo/IDN60901/IDN60901.94763.axf

JavaScript Object Notation format (JSON) in row-major order
http://www.bom.gov.au/fwo/IDN60901/IDN60901.94763.json